createdAt,value
2023-07-20T00:01:46.564Z,5.18
2023-07-20T00:04:15.496Z,8.27
2023-07-20T00:06:42.074Z,5.28
2023-07-20T00:09:09.061Z,7.20
2023-07-20T00:11:38.850Z,5.95
2023-07-20T00:14:06.372Z,5.10
2023-07-20T00:16:33.097Z,7.03
2023-07-20T00:18:59.807Z,6.85
2023-07-20T00:21:26.727Z,6.60
2023-07-20T00:23:53.381Z,5.72
2023-07-20T00:26:19.957Z,5.80
2023-07-20T00:28:46.571Z,6.18
2023-07-20T00:31:13.236Z,7.35
2023-07-20T00:33:39.872Z,4.55
2023-07-20T00:36:06.571Z,5.85
2023-07-20T00:38:33.170Z,4.93
2023-07-20T00:40:59.726Z,5.72
2023-07-20T00:43:26.273Z,5.10
2023-07-20T00:45:52.893Z,4.72
2023-07-20T00:48:19.716Z,5.45
2023-07-20T00:50:48.268Z,5.13
2023-07-20T00:53:15.285Z,5.13
2023-07-20T00:55:42.056Z,6.38
2023-07-20T00:58:09.451Z,5.05
2023-07-20T01:00:36.115Z,5.30
2023-07-20T01:03:02.718Z,6.13
2023-07-20T01:05:41.029Z,5.18
2023-07-20T01:08:25.257Z,7.47
2023-07-20T01:10:58.423Z,7.93
2023-07-20T01:13:27.852Z,6.20
2023-07-20T01:16:04.071Z,7.15
2023-07-20T01:18:30.699Z,6.82
2023-07-20T01:21:04.536Z,5.75
2023-07-20T01:23:59.414Z,6.07
2023-07-20T01:26:39.008Z,5.05
2023-07-20T01:29:29.018Z,6.75
2023-07-20T01:31:57.080Z,5.93
2023-07-20T01:36:53.431Z,7.07
2023-07-20T01:39:21.862Z,9.43
2023-07-20T01:41:48.719Z,6.88
2023-07-20T01:44:15.345Z,8.80
2023-07-20T01:46:41.884Z,5.57
2023-07-20T01:49:08.408Z,7.70
2023-07-20T01:51:34.886Z,7.32
2023-07-20T01:54:01.811Z,8.07
2023-07-20T01:56:28.293Z,11.82
2023-07-20T01:58:54.906Z,7.63
2023-07-20T02:01:21.437Z,8.40
2023-07-20T02:03:47.982Z,7.45
2023-07-20T02:06:14.455Z,9.23
2023-07-20T02:08:44.090Z,7.80
2023-07-20T02:11:11.123Z,7.32
2023-07-20T02:13:37.758Z,8.27
2023-07-20T02:16:04.777Z,7.03
2023-07-20T02:18:32.580Z,6.93
2023-07-20T02:21:01.542Z,7.18
2023-07-20T02:23:28.244Z,6.10
2023-07-20T02:25:54.832Z,7.05
2023-07-20T02:28:21.485Z,8.02
2023-07-20T02:30:48.449Z,7.20
2023-07-20T02:33:14.971Z,6.35
2023-07-20T02:35:41.796Z,6.55
2023-07-20T02:38:08.291Z,6.97
2023-07-20T02:40:34.842Z,6.43
2023-07-20T02:43:01.465Z,6.78
2023-07-20T02:45:27.980Z,8.48
2023-07-20T02:47:54.610Z,7.65
2023-07-20T02:50:21.149Z,10.77
2023-07-20T02:52:47.616Z,10.00
2023-07-20T02:55:14.126Z,7.90
2023-07-20T02:57:40.690Z,5.93
2023-07-20T03:00:08.987Z,6.35
2023-07-20T03:02:37.266Z,8.45
2023-07-20T03:05:07.044Z,6.55
2023-07-20T03:07:33.756Z,7.93
2023-07-20T03:10:00.299Z,9.15
2023-07-20T03:12:26.842Z,6.28
2023-07-20T03:14:53.785Z,7.28
2023-07-20T03:17:21.887Z,6.38
2023-07-20T03:22:14.937Z,5.80
2023-07-20T03:24:41.447Z,5.47
2023-07-20T03:27:07.979Z,6.30
2023-07-20T03:29:34.596Z,7.00
2023-07-20T03:32:01.484Z,7.25
2023-07-20T03:34:28.017Z,7.70
2023-07-20T03:36:54.517Z,5.80
2023-07-20T03:39:21.080Z,6.00
2023-07-20T03:41:47.654Z,8.30
2023-07-20T03:44:14.162Z,7.95
2023-07-20T03:46:40.943Z,6.20
2023-07-20T03:49:07.524Z,7.22
2023-07-20T03:51:33.999Z,7.82
2023-07-20T03:54:00.724Z,7.03
2023-07-20T03:56:27.620Z,6.45
2023-07-20T03:58:54.249Z,7.22
2023-07-20T04:01:20.806Z,5.82
2023-07-20T04:03:49.976Z,7.18
2023-07-20T04:06:18.633Z,9.02
2023-07-20T04:08:45.936Z,9.77
2023-07-20T04:11:12.425Z,8.30
2023-07-20T04:13:38.953Z,7.50
2023-07-20T04:16:05.749Z,7.20
2023-07-20T04:18:32.269Z,7.43
2023-07-20T04:20:58.749Z,7.25
2023-07-20T04:23:25.298Z,8.00
2023-07-20T04:25:53.035Z,8.30
2023-07-20T04:28:19.530Z,7.72
2023-07-20T04:30:46.198Z,7.93
2023-07-20T04:33:12.885Z,7.38
2023-07-20T04:35:50.089Z,9.35
2023-07-20T04:38:18.660Z,7.75
2023-07-20T04:40:47.029Z,9.82
2023-07-20T04:43:14.494Z,12.27
2023-07-20T04:45:41.029Z,7.38
2023-07-20T04:48:14.441Z,7.40
2023-07-20T04:50:46.655Z,8.55
2023-07-20T04:53:13.816Z,7.50
2023-07-20T04:55:41.076Z,7.43
2023-07-20T04:58:08.130Z,9.07
2023-07-20T05:00:35.267Z,8.73
2023-07-20T05:03:02.583Z,7.97
2023-07-20T05:05:29.337Z,8.23
2023-07-20T05:07:55.923Z,8.77
2023-07-20T05:10:22.464Z,11.63
2023-07-20T05:12:49.012Z,7.90
2023-07-20T05:15:15.792Z,8.35
2023-07-20T05:17:42.494Z,10.25
2023-07-20T05:20:11.337Z,13.52
2023-07-20T05:22:41.363Z,7.07
2023-07-20T05:25:09.431Z,12.63
2023-07-20T05:27:40.588Z,34.45
2023-07-20T05:30:10.987Z,28.42
2023-07-20T05:32:37.616Z,10.93
2023-07-20T05:35:04.533Z,10.10
2023-07-20T05:37:31.355Z,9.20
2023-07-20T05:39:58.593Z,9.57
2023-07-20T05:42:25.095Z,8.20
2023-07-20T05:44:54.052Z,10.43
2023-07-20T05:47:20.685Z,10.30
2023-07-20T05:49:47.296Z,11.07
2023-07-20T05:52:14.581Z,11.05
2023-07-20T05:54:41.071Z,9.40
2023-07-20T05:57:09.061Z,9.98
2023-07-20T05:59:35.651Z,8.02
2023-07-20T06:02:05.708Z,7.85
2023-07-20T06:04:33.685Z,8.88
2023-07-20T06:07:03.829Z,11.65
2023-07-20T06:09:32.973Z,10.23
2023-07-20T06:12:01.104Z,11.18
2023-07-20T06:14:30.019Z,8.15
2023-07-20T06:17:12.184Z,7.43
2023-07-20T06:19:57.806Z,9.38
2023-07-20T06:22:26.382Z,7.68
2023-07-20T06:25:05.779Z,6.93
2023-07-20T06:27:33.080Z,8.15
2023-07-20T06:30:07.826Z,7.18
2023-07-20T06:32:36.290Z,7.13
2023-07-20T06:35:11.156Z,7.05
2023-07-20T06:40:36.972Z,6.43
2023-07-20T06:45:49.192Z,6.95
2023-07-20T06:48:18.784Z,8.52
2023-07-20T06:50:46.564Z,13.50
2023-07-20T06:53:22.228Z,8.27
2023-07-20T06:55:48.983Z,5.68
2023-07-20T06:58:15.677Z,7.57
2023-07-20T07:00:42.194Z,6.50
2023-07-20T07:03:08.762Z,7.18
2023-07-20T07:05:38.842Z,9.48
2023-07-20T07:08:08.647Z,5.90
2023-07-20T07:10:37.077Z,5.28
2023-07-20T07:13:05.783Z,6.57
2023-07-20T07:15:33.342Z,5.70
2023-07-20T07:20:28.902Z,6.85
2023-07-20T07:25:24.151Z,8.25
2023-07-20T07:27:51.265Z,5.78
2023-07-20T07:30:17.965Z,5.10
2023-07-20T07:32:44.652Z,5.50
2023-07-20T07:35:11.264Z,4.57
2023-07-20T07:37:52.203Z,6.40
2023-07-20T07:40:24.331Z,6.32
2023-07-20T07:42:50.853Z,5.80
2023-07-20T07:45:17.909Z,5.07
2023-07-20T07:47:44.703Z,10.95
2023-07-20T07:50:11.719Z,5.32
2023-07-20T07:52:38.461Z,4.50
2023-07-20T07:55:05.704Z,6.78
2023-07-20T07:57:32.187Z,2.67
2023-07-20T07:59:58.668Z,7.57
2023-07-20T08:02:25.167Z,6.65
2023-07-20T08:04:53.595Z,5.95
2023-07-20T08:07:20.323Z,6.00
2023-07-20T08:09:46.960Z,5.55
2023-07-20T08:12:14.624Z,7.38
2023-07-20T08:14:41.246Z,4.05
2023-07-20T08:17:08.004Z,6.72
2023-07-20T08:19:34.959Z,7.20
2023-07-20T08:22:01.612Z,3.97
2023-07-20T08:24:28.420Z,5.85
2023-07-20T08:26:55.191Z,5.43
2023-07-20T08:29:21.894Z,6.68
2023-07-20T08:31:48.741Z,8.75
2023-07-20T08:34:29.669Z,6.30
2023-07-20T08:36:58.646Z,8.00
2023-07-20T08:39:25.704Z,6.07
2023-07-20T08:41:55.817Z,3.30
2023-07-20T08:44:23.782Z,6.25
2023-07-20T08:46:50.841Z,5.85
2023-07-20T08:49:19.418Z,6.63
2023-07-20T08:51:47.841Z,4.80
2023-07-20T08:54:15.551Z,7.00
2023-07-20T08:56:43.813Z,3.97
2023-07-20T08:59:10.448Z,3.58
2023-07-20T09:01:40.124Z,6.03
2023-07-20T09:04:07.311Z,6.28
2023-07-20T09:06:36.122Z,3.70
2023-07-20T09:09:02.753Z,5.32
2023-07-20T09:11:29.968Z,4.15
2023-07-20T09:14:07.519Z,3.92
2023-07-20T09:16:48.058Z,5.30
2023-07-20T09:19:16.379Z,4.55
2023-07-20T09:21:49.351Z,6.07
2023-07-20T09:24:18.340Z,5.30
2023-07-20T09:26:48.578Z,4.25
2023-07-20T09:29:18.915Z,4.25
2023-07-20T09:32:01.750Z,4.63
2023-07-20T09:37:01.833Z,11.73
2023-07-20T09:39:30.076Z,5.55
2023-07-20T09:47:05.500Z,3.38
2023-07-20T09:50:26.283Z,5.65
2023-07-20T09:55:10.306Z,8.65
2023-07-20T09:57:37.334Z,5.63
2023-07-20T10:02:46.877Z,4.65
2023-07-20T10:05:15.621Z,3.45
2023-07-20T10:07:48.899Z,4.30
2023-07-20T10:10:19.740Z,3.30
2023-07-20T10:12:49.354Z,5.72
2023-07-20T10:15:22.460Z,4.25
2023-07-20T10:18:04.935Z,4.80
2023-07-20T10:20:36.716Z,3.42
2023-07-20T10:23:03.699Z,5.68
2023-07-20T10:25:30.620Z,2.85
2023-07-20T10:27:58.346Z,4.00
2023-07-20T10:32:55.062Z,3.58
2023-07-20T10:35:21.894Z,3.63
2023-07-20T10:37:54.970Z,2.20
2023-07-20T10:40:35.708Z,3.85
2023-07-20T10:43:09.388Z,2.63
2023-07-20T10:45:36.852Z,2.85
2023-07-20T10:48:08.092Z,2.47
2023-07-20T10:50:35.681Z,2.13
2023-07-20T10:55:34.037Z,2.53
2023-07-20T10:58:11.127Z,5.50
2023-07-20T11:00:38.238Z,4.22
2023-07-20T11:03:05.824Z,2.70
2023-07-20T11:05:40.084Z,4.38
2023-07-20T11:08:11.185Z,2.67
2023-07-20T11:10:37.924Z,2.97
2023-07-20T11:13:24.726Z,4.47
2023-07-20T11:18:27.047Z,3.22
2023-07-20T11:20:54.645Z,4.50
2023-07-20T11:23:22.054Z,3.03
2023-07-20T11:25:48.873Z,3.78
2023-07-20T11:28:15.437Z,2.10
2023-07-20T11:30:42.185Z,3.97
2023-07-20T11:33:12.397Z,4.10
2023-07-20T11:35:52.111Z,3.58
2023-07-20T11:38:18.909Z,4.65
2023-07-20T11:40:47.233Z,3.03
2023-07-20T11:45:46.394Z,3.65
2023-07-20T11:48:19.109Z,2.67
2023-07-20T11:50:46.175Z,2.97
2023-07-20T11:53:13.246Z,3.35
2023-07-20T11:55:42.090Z,3.25
2023-07-20T11:58:10.427Z,3.38
2023-07-20T12:00:41.113Z,2.70
2023-07-20T12:03:08.668Z,4.35
2023-07-20T12:05:47.674Z,3.17
2023-07-20T12:08:22.566Z,2.38
2023-07-20T12:10:50.054Z,5.45
2023-07-20T12:13:19.388Z,4.85
2023-07-20T12:15:46.199Z,3.08
2023-07-20T12:18:15.234Z,3.47
2023-07-20T12:20:41.890Z,2.42
2023-07-20T12:23:13.250Z,3.67
2023-07-20T12:25:43.856Z,4.28
2023-07-20T12:28:21.236Z,4.32
2023-07-20T12:30:49.668Z,3.80
2023-07-20T12:33:17.453Z,2.15
2023-07-20T12:35:44.941Z,2.67
2023-07-20T12:38:11.974Z,5.60
2023-07-20T12:40:38.590Z,5.35
2023-07-20T12:43:07.535Z,4.97
2023-07-20T12:45:34.396Z,2.03
2023-07-20T12:48:01.050Z,4.70
2023-07-20T12:50:28.469Z,5.63
2023-07-20T12:52:57.964Z,2.70
2023-07-20T12:55:24.684Z,4.40
2023-07-20T12:57:51.472Z,2.47
2023-07-20T13:00:18.399Z,4.97
2023-07-20T13:02:45.037Z,3.13
2023-07-20T13:05:12.066Z,4.10
2023-07-20T13:10:12.103Z,6.10
2023-07-20T13:12:42.709Z,8.60
2023-07-20T13:15:15.979Z,2.70
2023-07-20T13:17:42.916Z,5.72
2023-07-20T13:20:12.178Z,4.43
2023-07-20T13:22:42.275Z,4.95
2023-07-20T13:25:09.646Z,4.53
2023-07-20T13:27:38.952Z,3.13
2023-07-20T13:30:10.350Z,3.30
2023-07-20T13:32:37.910Z,1.75
2023-07-20T13:35:05.427Z,3.00
2023-07-20T13:37:32.216Z,4.97
2023-07-20T13:39:58.678Z,1.90
2023-07-20T13:42:25.223Z,3.17
2023-07-20T13:44:51.849Z,3.20
2023-07-20T13:49:48.455Z,5.50
2023-07-20T13:57:16.053Z,5.18
2023-07-20T13:59:45.399Z,5.38
2023-07-20T14:04:42.733Z,2.10
2023-07-20T14:07:10.523Z,3.15
2023-07-20T14:14:33.588Z,4.47
2023-07-20T14:17:00.128Z,1.80
2023-07-20T14:19:26.667Z,3.80
2023-07-20T14:21:53.141Z,4.53
2023-07-20T14:24:19.946Z,3.08
2023-07-20T14:26:48.696Z,3.97
2023-07-20T14:29:20.401Z,5.07
2023-07-20T14:31:53.380Z,4.22
2023-07-20T14:34:20.471Z,3.38
2023-07-20T14:36:47.227Z,3.15
2023-07-20T14:39:13.946Z,3.70
2023-07-20T14:41:40.468Z,2.83
2023-07-20T14:44:07.179Z,4.00
2023-07-20T14:46:33.659Z,4.70
2023-07-20T14:49:00.195Z,2.70
2023-07-20T14:51:37.615Z,2.25
2023-07-20T14:54:04.582Z,4.32
2023-07-20T14:56:31.027Z,3.67
2023-07-20T14:58:59.167Z,8.35
2023-07-20T15:01:27.447Z,4.28
2023-07-20T15:03:57.603Z,4.00
2023-07-20T15:06:26.458Z,2.70
2023-07-20T15:08:53.383Z,4.50
2023-07-20T15:11:19.862Z,3.00
2023-07-20T15:13:46.370Z,6.05
2023-07-20T15:16:12.885Z,2.92
2023-07-20T15:18:48.017Z,2.95
2023-07-20T15:21:16.105Z,2.38
2023-07-20T15:23:43.470Z,2.22
2023-07-20T15:26:10.088Z,2.97
2023-07-20T15:28:36.721Z,3.55
2023-07-20T15:31:05.005Z,3.90
2023-07-20T15:33:32.317Z,3.72
2023-07-20T15:35:59.215Z,3.20
2023-07-20T15:38:25.774Z,2.67
2023-07-20T15:40:52.431Z,3.60
2023-07-20T15:43:22.098Z,2.75
2023-07-20T15:45:52.422Z,5.68
2023-07-20T15:48:19.705Z,3.83
2023-07-20T15:50:50.927Z,4.90
2023-07-20T15:53:17.646Z,3.67
2023-07-20T15:55:44.513Z,2.42
2023-07-20T15:58:11.173Z,5.82
2023-07-20T16:00:38.835Z,2.72
2023-07-20T16:03:06.537Z,5.45
2023-07-20T16:07:59.688Z,5.45
2023-07-20T16:12:53.942Z,4.05
2023-07-20T16:17:50.054Z,3.50
2023-07-20T16:20:16.701Z,3.40
2023-07-20T16:22:43.244Z,2.75
2023-07-20T16:25:12.079Z,4.97
2023-07-20T16:27:38.596Z,2.30
2023-07-20T16:30:06.088Z,3.33
2023-07-20T16:32:32.618Z,2.97
2023-07-20T16:35:11.640Z,3.08
2023-07-20T16:37:38.496Z,3.22
2023-07-20T16:40:31.998Z,3.20
2023-07-20T16:45:27.453Z,1.50
2023-07-20T16:47:54.564Z,2.78
2023-07-20T16:50:21.431Z,3.28
2023-07-20T16:52:47.952Z,2.42
2023-07-20T16:55:15.479Z,6.43
2023-07-20T16:57:42.022Z,2.88
2023-07-20T17:00:11.864Z,3.42
2023-07-20T17:02:38.995Z,3.70
2023-07-20T17:05:13.496Z,2.47
2023-07-20T17:07:40.677Z,2.67
2023-07-20T17:10:08.327Z,2.70
2023-07-20T17:12:36.354Z,2.40
2023-07-20T17:15:02.880Z,3.22
2023-07-20T17:17:29.430Z,4.47
2023-07-20T17:22:25.383Z,2.85
2023-07-20T17:27:21.275Z,3.90
2023-07-20T17:29:47.840Z,6.07
2023-07-20T17:32:14.438Z,3.00
2023-07-20T17:34:41.381Z,2.78
2023-07-20T17:44:37.317Z,4.70
2023-07-20T17:49:33.514Z,4.38
2023-07-20T17:52:00.112Z,2.22
2023-07-20T17:54:26.612Z,3.70
2023-07-20T17:56:53.189Z,4.13
2023-07-20T17:59:20.365Z,4.57
2023-07-20T18:01:46.858Z,4.90
2023-07-20T18:04:13.891Z,3.55
2023-07-20T18:06:40.469Z,4.15
2023-07-20T18:09:08.297Z,18.83
2023-07-20T18:14:02.151Z,27.08
2023-07-20T18:16:28.806Z,16.30
2023-07-20T18:18:56.364Z,26.52
2023-07-20T18:21:23.919Z,8.30
2023-07-20T18:23:52.351Z,4.72
2023-07-20T18:26:20.092Z,2.55
2023-07-20T18:28:46.654Z,2.90
2023-07-20T18:31:13.204Z,3.15
2023-07-20T18:33:40.168Z,3.33
2023-07-20T18:36:07.681Z,2.88
2023-07-20T18:38:34.884Z,3.75
2023-07-20T18:41:01.432Z,4.35
2023-07-20T18:43:28.220Z,4.85
2023-07-20T18:45:55.500Z,3.70
2023-07-20T18:48:22.261Z,3.95
2023-07-20T18:50:48.986Z,6.28
2023-07-20T18:53:15.469Z,4.25
2023-07-20T18:55:41.969Z,5.75
2023-07-20T18:58:08.552Z,5.63
2023-07-20T19:00:35.049Z,3.40
2023-07-20T19:03:01.728Z,3.85
2023-07-20T19:05:28.265Z,5.38
2023-07-20T19:07:54.941Z,3.58
2023-07-20T19:10:21.434Z,2.35
2023-07-20T19:12:47.929Z,6.75
2023-07-20T19:15:14.690Z,4.43
2023-07-20T19:17:41.724Z,3.95
2023-07-20T19:20:08.965Z,4.80
2023-07-20T19:22:35.456Z,4.57
2023-07-20T19:25:01.926Z,4.60
2023-07-20T19:27:29.814Z,3.63
2023-07-20T19:29:56.492Z,4.97
2023-07-20T19:32:22.966Z,3.65
2023-07-20T19:34:49.450Z,5.68
2023-07-20T19:37:16.496Z,5.70
2023-07-20T19:39:44.650Z,4.28
2023-07-20T19:42:11.553Z,4.05
2023-07-20T19:44:38.199Z,5.45
2023-07-20T19:47:07.495Z,5.50
2023-07-20T19:49:34.029Z,3.55
2023-07-20T19:52:00.553Z,4.57
2023-07-20T19:56:56.800Z,4.22
2023-07-20T19:59:24.617Z,4.68
2023-07-20T20:01:51.346Z,4.63
2023-07-20T20:06:50.449Z,6.05
2023-07-20T20:09:17.579Z,6.07
2023-07-20T20:11:44.928Z,6.55
2023-07-20T20:14:11.509Z,5.35
2023-07-20T20:16:39.082Z,5.43
2023-07-20T20:19:07.068Z,4.10
2023-07-20T20:24:03.508Z,4.20
2023-07-20T20:26:30.490Z,4.22
2023-07-20T20:28:56.968Z,3.47
2023-07-20T20:31:23.474Z,4.78
2023-07-20T20:33:49.984Z,5.43
2023-07-20T20:36:17.296Z,4.65
2023-07-20T20:38:43.773Z,4.97
2023-07-20T20:41:10.275Z,8.70
2023-07-20T20:43:36.835Z,4.72
2023-07-20T20:46:05.921Z,3.42
2023-07-20T20:48:36.673Z,6.13
2023-07-20T20:51:04.066Z,4.38
2023-07-20T20:53:33.424Z,4.13
2023-07-20T20:56:00.690Z,3.72
2023-07-20T20:58:27.396Z,5.43
2023-07-20T21:00:54.099Z,4.75
2023-07-20T21:03:21.029Z,4.90
2023-07-20T21:05:47.539Z,6.15
2023-07-20T21:08:17.574Z,5.93
2023-07-20T21:10:46.904Z,5.38
2023-07-20T21:13:13.769Z,6.13
2023-07-20T21:15:41.878Z,5.65
2023-07-20T21:18:08.842Z,5.47
2023-07-20T21:20:35.813Z,4.57
2023-07-20T21:23:03.124Z,5.28
2023-07-20T21:25:29.688Z,5.60
2023-07-20T21:27:56.144Z,4.85
2023-07-20T21:30:24.390Z,4.13
2023-07-20T21:32:50.988Z,7.10
2023-07-20T21:35:17.702Z,6.93
2023-07-20T21:37:44.189Z,4.22
2023-07-20T21:40:11.033Z,8.38
2023-07-20T21:42:38.394Z,4.72
2023-07-20T21:45:05.436Z,9.35
2023-07-20T21:47:32.054Z,5.55
2023-07-20T21:50:00.509Z,6.15
2023-07-20T21:52:27.158Z,4.18
2023-07-20T21:54:53.875Z,4.18
2023-07-20T21:57:20.560Z,5.20
2023-07-20T21:59:47.228Z,4.25
2023-07-20T22:02:13.869Z,5.55
2023-07-20T22:04:40.570Z,4.53
2023-07-20T22:07:14.739Z,4.78
2023-07-20T22:09:45.711Z,4.15
2023-07-20T22:12:13.599Z,3.97
2023-07-20T22:14:40.897Z,4.72
2023-07-20T22:17:08.231Z,4.63
2023-07-20T22:19:35.724Z,4.40
2023-07-20T22:22:06.479Z,5.22
2023-07-20T22:24:36.074Z,3.55
2023-07-20T22:27:05.101Z,3.80
2023-07-20T22:29:32.088Z,3.50
2023-07-20T22:31:59.453Z,4.28
2023-07-20T22:34:28.174Z,3.90
2023-07-20T22:36:54.976Z,5.05
2023-07-20T22:39:21.561Z,3.88
2023-07-20T22:41:48.166Z,4.07
2023-07-20T22:44:15.685Z,4.00
2023-07-20T22:46:42.511Z,3.72
2023-07-20T22:49:09.212Z,3.30
2023-07-20T22:51:35.853Z,3.60
2023-07-20T22:54:02.435Z,3.38
2023-07-20T22:56:29.536Z,3.28
2023-07-20T22:58:56.061Z,5.13
2023-07-20T23:01:22.664Z,6.03
2023-07-20T23:03:49.619Z,3.13
2023-07-20T23:06:16.405Z,3.75
2023-07-20T23:08:44.211Z,4.55
2023-07-20T23:11:13.158Z,3.25
2023-07-20T23:13:41.376Z,3.22
2023-07-20T23:16:09.431Z,3.72
2023-07-20T23:18:36.892Z,3.67
2023-07-20T23:21:05.078Z,4.15
2023-07-20T23:23:32.925Z,3.45
2023-07-20T23:25:59.439Z,4.38
2023-07-20T23:28:26.000Z,4.28
2023-07-20T23:30:52.551Z,3.22
2023-07-20T23:33:23.084Z,4.78
2023-07-20T23:35:50.114Z,6.05
2023-07-20T23:38:17.576Z,3.08
2023-07-20T23:40:44.203Z,3.67
2023-07-20T23:43:10.655Z,5.05
2023-07-20T23:45:38.032Z,3.10
2023-07-20T23:48:09.761Z,3.42
2023-07-20T23:50:37.798Z,4.07
2023-07-20T23:55:31.097Z,3.92
2023-07-20T23:57:58.393Z,5.43
